sensor_id;sensor_type;location;lat;lon;timestamp;noise_LAeq;noise_LA_min;noise_LA_max;noise_LA01;noise_LA95
37162;Laerm;68342;52.598;13.450;2024-02-15T00:00:58;38.71;32.99;50.21;;
37162;Laerm;68342;52.598;13.450;2024-02-15T00:03:25;38.89;31.14;60.14;;
37162;Laerm;68342;52.598;13.450;2024-02-15T00:05:50;39.80;31.84;55.59;;
37162;Laerm;68342;52.598;13.450;2024-02-15T00:08:15;38.39;31.20;54.72;;
37162;Laerm;68342;52.598;13.450;2024-02-15T00:10:40;37.26;30.49;57.99;;
37162;Laerm;68342;52.598;13.450;2024-02-15T00:13:06;37.62;31.26;54.46;;
37162;Laerm;68342;52.598;13.450;2024-02-15T00:15:31;37.80;31.98;53.69;;
37162;Laerm;68342;52.598;13.450;2024-02-15T00:17:56;38.37;32.21;50.81;;
37162;Laerm;68342;52.598;13.450;2024-02-15T00:20:21;39.07;32.99;56.55;;
37162;Laerm;68342;52.598;13.450;2024-02-15T00:22:47;38.76;32.80;57.02;;
37162;Laerm;68342;52.598;13.450;2024-02-15T00:25:13;37.97;32.37;52.62;;
37162;Laerm;68342;52.598;13.450;2024-02-15T00:27:38;38.80;32.61;56.75;;
37162;Laerm;68342;52.598;13.450;2024-02-15T00:30:08;37.82;32.35;54.54;;
37162;Laerm;68342;52.598;13.450;2024-02-15T00:32:33;40.42;33.82;58.51;;
37162;Laerm;68342;52.598;13.450;2024-02-15T00:34:59;39.38;32.27;54.77;;
37162;Laerm;68342;52.598;13.450;2024-02-15T00:37:24;38.35;31.43;59.41;;
37162;Laerm;68342;52.598;13.450;2024-02-15T00:39:50;39.94;32.18;52.28;;
37162;Laerm;68342;52.598;13.450;2024-02-15T00:42:15;37.42;30.31;54.41;;
37162;Laerm;68342;52.598;13.450;2024-02-15T00:44:41;37.02;29.96;54.97;;
37162;Laerm;68342;52.598;13.450;2024-02-15T00:47:07;37.91;29.81;56.22;;
37162;Laerm;68342;52.598;13.450;2024-02-15T00:49:32;37.58;30.01;55.66;;
37162;Laerm;68342;52.598;13.450;2024-02-15T00:51:58;36.80;29.96;57.37;;
37162;Laerm;68342;52.598;13.450;2024-02-15T00:54:24;38.55;31.22;58.32;;
37162;Laerm;68342;52.598;13.450;2024-02-15T00:56:49;36.69;30.66;54.01;;
37162;Laerm;68342;52.598;13.450;2024-02-15T00:59:15;39.82;30.76;52.85;;
37162;Laerm;68342;52.598;13.450;2024-02-15T01:01:40;38.69;31.38;58.31;;
37162;Laerm;68342;52.598;13.450;2024-02-15T01:04:05;37.54;30.97;55.51;;
37162;Laerm;68342;52.598;13.450;2024-02-15T01:06:31;39.65;31.78;54.13;;
37162;Laerm;68342;52.598;13.450;2024-02-15T01:08:57;37.57;30.58;57.80;;
37162;Laerm;68342;52.598;13.450;2024-02-15T01:11:22;38.28;31.28;59.09;;
37162;Laerm;68342;52.598;13.450;2024-02-15T01:13:49;45.40;31.47;56.64;;
37162;Laerm;68342;52.598;13.450;2024-02-15T01:16:14;38.70;30.40;55.68;;
37162;Laerm;68342;52.598;13.450;2024-02-15T01:18:40;38.55;32.18;54.46;;
37162;Laerm;68342;52.598;13.450;2024-02-15T01:21:05;43.60;33.06;66.17;;
37162;Laerm;68342;52.598;13.450;2024-02-15T01:23:31;40.21;32.86;56.32;;
37162;Laerm;68342;52.598;13.450;2024-02-15T01:25:56;39.31;31.38;58.34;;
37162;Laerm;68342;52.598;13.450;2024-02-15T01:28:22;38.30;31.37;56.97;;
37162;Laerm;68342;52.598;13.450;2024-02-15T01:30:48;36.59;30.35;55.47;;
37162;Laerm;68342;52.598;13.450;2024-02-15T01:33:13;37.04;30.69;54.15;;
37162;Laerm;68342;52.598;13.450;2024-02-15T01:35:38;37.48;29.95;51.38;;
37162;Laerm;68342;52.598;13.450;2024-02-15T01:38:04;41.14;33.24;56.40;;
37162;Laerm;68342;52.598;13.450;2024-02-15T01:40:30;37.25;30.34;59.06;;
37162;Laerm;68342;52.598;13.450;2024-02-15T01:42:55;39.34;32.04;53.82;;
37162;Laerm;68342;52.598;13.450;2024-02-15T01:45:21;37.78;30.79;58.49;;
37162;Laerm;68342;52.598;13.450;2024-02-15T01:47:47;37.86;30.88;55.04;;
37162;Laerm;68342;52.598;13.450;2024-02-15T01:50:14;38.48;31.25;56.87;;
37162;Laerm;68342;52.598;13.450;2024-02-15T01:52:41;39.56;30.77;54.12;;
37162;Laerm;68342;52.598;13.450;2024-02-15T01:55:08;37.06;29.88;56.87;;
37162;Laerm;68342;52.598;13.450;2024-02-15T01:57:35;38.09;30.45;53.90;;
37162;Laerm;68342;52.598;13.450;2024-02-15T02:00:01;37.68;31.44;55.89;;
37162;Laerm;68342;52.598;13.450;2024-02-15T02:02:28;38.45;31.84;54.93;;
37162;Laerm;68342;52.598;13.450;2024-02-15T02:04:56;37.99;30.72;56.28;;
37162;Laerm;68342;52.598;13.450;2024-02-15T02:07:22;39.20;30.45;56.96;;
37162;Laerm;68342;52.598;13.450;2024-02-15T02:09:47;38.19;31.26;55.39;;
37162;Laerm;68342;52.598;13.450;2024-02-15T02:12:15;36.62;30.41;54.47;;
37162;Laerm;68342;52.598;13.450;2024-02-15T02:14:41;37.66;31.31;56.76;;
37162;Laerm;68342;52.598;13.450;2024-02-15T02:17:13;39.46;32.71;54.42;;
37162;Laerm;68342;52.598;13.450;2024-02-15T02:19:38;36.93;30.41;55.33;;
37162;Laerm;68342;52.598;13.450;2024-02-15T02:22:04;39.49;33.49;57.44;;
37162;Laerm;68342;52.598;13.450;2024-02-15T02:24:30;37.54;30.95;57.49;;
37162;Laerm;68342;52.598;13.450;2024-02-15T02:27:02;39.50;31.75;53.45;;
37162;Laerm;68342;52.598;13.450;2024-02-15T02:29:27;37.55;30.93;52.88;;
37162;Laerm;68342;52.598;13.450;2024-02-15T02:31:55;40.43;31.32;54.62;;
37162;Laerm;68342;52.598;13.450;2024-02-15T02:34:21;42.83;33.09;54.89;;
37162;Laerm;68342;52.598;13.450;2024-02-15T02:36:46;40.77;31.74;52.51;;
37162;Laerm;68342;52.598;13.450;2024-02-15T02:39:13;41.67;33.68;59.76;;
37162;Laerm;68342;52.598;13.450;2024-02-15T02:41:38;40.87;32.04;59.21;;
37162;Laerm;68342;52.598;13.450;2024-02-15T02:44:03;38.92;31.67;52.35;;
37162;Laerm;68342;52.598;13.450;2024-02-15T02:46:29;38.46;31.98;58.49;;
37162;Laerm;68342;52.598;13.450;2024-02-15T02:48:54;42.23;32.57;51.83;;
37162;Laerm;68342;52.598;13.450;2024-02-15T02:51:20;38.34;31.91;57.82;;
37162;Laerm;68342;52.598;13.450;2024-02-15T02:53:45;38.00;30.21;53.16;;
37162;Laerm;68342;52.598;13.450;2024-02-15T02:56:10;41.02;30.75;54.64;;
37162;Laerm;68342;52.598;13.450;2024-02-15T02:58:35;38.58;30.78;56.36;;
37162;Laerm;68342;52.598;13.450;2024-02-15T03:01:01;39.74;31.31;55.84;;
37162;Laerm;68342;52.598;13.450;2024-02-15T03:03:26;38.67;31.74;56.91;;
37162;Laerm;68342;52.598;13.450;2024-02-15T03:05:51;38.83;31.16;57.03;;
37162;Laerm;68342;52.598;13.450;2024-02-15T03:08:17;39.93;32.61;62.79;;
37162;Laerm;68342;52.598;13.450;2024-02-15T03:10:42;43.99;35.80;65.69;;
37162;Laerm;68342;52.598;13.450;2024-02-15T03:13:08;40.31;34.83;51.52;;
37162;Laerm;68342;52.598;13.450;2024-02-15T03:15:34;41.01;35.00;56.04;;
37162;Laerm;68342;52.598;13.450;2024-02-15T03:17:59;41.52;36.12;52.58;;
37162;Laerm;68342;52.598;13.450;2024-02-15T03:20:24;42.74;36.07;56.08;;
37162;Laerm;68342;52.598;13.450;2024-02-15T03:25:21;42.61;35.66;54.03;;
37162;Laerm;68342;52.598;13.450;2024-02-15T03:27:49;42.83;37.78;55.37;;
37162;Laerm;68342;52.598;13.450;2024-02-15T03:30:16;42.10;36.42;53.42;;
37162;Laerm;68342;52.598;13.450;2024-02-15T03:32:41;44.39;37.08;51.64;;
37162;Laerm;68342;52.598;13.450;2024-02-15T03:35:07;40.98;34.71;59.16;;
37162;Laerm;68342;52.598;13.450;2024-02-15T03:37:32;45.76;40.05;54.70;;
37162;Laerm;68342;52.598;13.450;2024-02-15T03:40:02;44.77;38.90;54.80;;
37162;Laerm;68342;52.598;13.450;2024-02-15T03:42:29;40.79;33.63;52.84;;
37162;Laerm;68342;52.598;13.450;2024-02-15T03:44:54;44.03;36.01;55.46;;
37162;Laerm;68342;52.598;13.450;2024-02-15T03:47:20;45.30;36.69;56.51;;
37162;Laerm;68342;52.598;13.450;2024-02-15T03:49:45;43.82;37.57;58.34;;
37162;Laerm;68342;52.598;13.450;2024-02-15T03:52:11;44.88;40.13;53.80;;
37162;Laerm;68342;52.598;13.450;2024-02-15T03:54:36;45.43;36.88;56.64;;
37162;Laerm;68342;52.598;13.450;2024-02-15T03:57:01;45.70;40.74;56.33;;
37162;Laerm;68342;52.598;13.450;2024-02-15T03:59:26;44.34;38.72;61.28;;
37162;Laerm;68342;52.598;13.450;2024-02-15T04:01:55;43.98;37.17;50.78;;
37162;Laerm;68342;52.598;13.450;2024-02-15T04:04:21;43.95;39.16;55.00;;
37162;Laerm;68342;52.598;13.450;2024-02-15T04:06:47;45.31;38.53;56.89;;
37162;Laerm;68342;52.598;13.450;2024-02-15T04:09:12;46.44;42.28;61.34;;
37162;Laerm;68342;52.598;13.450;2024-02-15T04:11:37;46.83;40.92;61.63;;
37162;Laerm;68342;52.598;13.450;2024-02-15T04:14:03;45.67;40.63;55.94;;
37162;Laerm;68342;52.598;13.450;2024-02-15T04:16:28;46.50;42.53;54.10;;
37162;Laerm;68342;52.598;13.450;2024-02-15T04:18:55;46.44;42.13;56.44;;
37162;Laerm;68342;52.598;13.450;2024-02-15T04:21:22;45.83;42.00;59.36;;
37162;Laerm;68342;52.598;13.450;2024-02-15T04:23:52;46.45;43.03;55.02;;
37162;Laerm;68342;52.598;13.450;2024-02-15T04:26:19;47.12;42.40;62.57;;
37162;Laerm;68342;52.598;13.450;2024-02-15T04:28:44;47.10;43.06;54.92;;
37162;Laerm;68342;52.598;13.450;2024-02-15T04:31:12;46.93;42.61;53.75;;
37162;Laerm;68342;52.598;13.450;2024-02-15T04:33:37;48.85;43.38;54.59;;
37162;Laerm;68342;52.598;13.450;2024-02-15T04:36:04;47.52;43.14;60.57;;
37162;Laerm;68342;52.598;13.450;2024-02-15T04:38:31;48.25;42.05;59.01;;
37162;Laerm;68342;52.598;13.450;2024-02-15T04:40:57;48.92;42.04;61.27;;
37162;Laerm;68342;52.598;13.450;2024-02-15T04:43:25;50.02;44.62;60.09;;
37162;Laerm;68342;52.598;13.450;2024-02-15T04:45:50;49.44;44.13;60.58;;
37162;Laerm;68342;52.598;13.450;2024-02-15T04:48:16;50.25;43.78;62.03;;
37162;Laerm;68342;52.598;13.450;2024-02-15T04:50:43;49.25;42.64;60.41;;
37162;Laerm;68342;52.598;13.450;2024-02-15T04:53:10;49.33;43.58;62.21;;
37162;Laerm;68342;52.598;13.450;2024-02-15T04:55:36;48.68;42.51;60.91;;
37162;Laerm;68342;52.598;13.450;2024-02-15T04:58:01;49.21;43.56;60.47;;
37162;Laerm;68342;52.598;13.450;2024-02-15T05:00:26;49.37;43.95;61.56;;
37162;Laerm;68342;52.598;13.450;2024-02-15T05:02:52;50.10;44.18;62.24;;
37162;Laerm;68342;52.598;13.450;2024-02-15T05:05:17;50.22;44.21;63.01;;
37162;Laerm;68342;52.598;13.450;2024-02-15T05:07:43;49.44;43.98;62.24;;
37162;Laerm;68342;52.598;13.450;2024-02-15T05:10:09;49.33;43.79;60.66;;
37162;Laerm;68342;52.598;13.450;2024-02-15T05:12:34;50.34;45.47;61.34;;
37162;Laerm;68342;52.598;13.450;2024-02-15T05:15:00;49.26;44.68;59.61;;
37162;Laerm;68342;52.598;13.450;2024-02-15T05:17:25;48.26;43.50;57.00;;
37162;Laerm;68342;52.598;13.450;2024-02-15T05:19:53;47.40;43.80;54.58;;
37162;Laerm;68342;52.598;13.450;2024-02-15T05:22:18;49.20;45.51;55.15;;
37162;Laerm;68342;52.598;13.450;2024-02-15T05:24:44;49.94;46.47;55.90;;
37162;Laerm;68342;52.598;13.450;2024-02-15T05:27:10;49.24;45.53;55.13;;
37162;Laerm;68342;52.598;13.450;2024-02-15T05:29:35;49.08;45.60;55.39;;
37162;Laerm;68342;52.598;13.450;2024-02-15T05:32:01;49.17;45.41;56.64;;
37162;Laerm;68342;52.598;13.450;2024-02-15T05:34:26;48.41;44.87;57.02;;
37162;Laerm;68342;52.598;13.450;2024-02-15T05:36:52;48.40;44.22;57.61;;
37162;Laerm;68342;52.598;13.450;2024-02-15T05:39:17;48.49;44.77;59.49;;
37162;Laerm;68342;52.598;13.450;2024-02-15T05:41:46;48.05;44.07;58.31;;
37162;Laerm;68342;52.598;13.450;2024-02-15T05:44:11;47.99;45.03;54.18;;
37162;Laerm;68342;52.598;13.450;2024-02-15T05:46:38;49.88;46.29;54.81;;
37162;Laerm;68342;52.598;13.450;2024-02-15T05:49:05;49.60;45.81;58.43;;
37162;Laerm;68342;52.598;13.450;2024-02-15T05:51:33;48.64;45.30;58.02;;
37162;Laerm;68342;52.598;13.450;2024-02-15T05:53:59;49.52;44.46;65.49;;
37162;Laerm;68342;52.598;13.450;2024-02-15T05:56:24;50.32;44.86;62.74;;
37162;Laerm;68342;52.598;13.450;2024-02-15T05:58:51;49.39;45.32;66.54;;
37162;Laerm;68342;52.598;13.450;2024-02-15T06:01:16;48.68;45.57;56.29;;
37162;Laerm;68342;52.598;13.450;2024-02-15T06:03:42;49.01;44.56;60.76;;
37162;Laerm;68342;52.598;13.450;2024-02-15T06:06:09;48.82;44.38;58.15;;
37162;Laerm;68342;52.598;13.450;2024-02-15T06:08:35;48.65;44.56;58.14;;
37162;Laerm;68342;52.598;13.450;2024-02-15T06:11:00;47.55;45.01;55.98;;
37162;Laerm;68342;52.598;13.450;2024-02-15T06:13:26;48.67;45.90;54.58;;
37162;Laerm;68342;52.598;13.450;2024-02-15T06:15:52;48.74;44.01;57.00;;
37162;Laerm;68342;52.598;13.450;2024-02-15T06:18:20;48.74;45.66;55.38;;
37162;Laerm;68342;52.598;13.450;2024-02-15T06:20:56;48.58;44.32;56.13;;
37162;Laerm;68342;52.598;13.450;2024-02-15T06:23:22;47.90;44.29;54.94;;
37162;Laerm;68342;52.598;13.450;2024-02-15T06:25:47;49.42;45.34;64.30;;
37162;Laerm;68342;52.598;13.450;2024-02-15T06:28:13;48.06;43.58;56.53;;
37162;Laerm;68342;52.598;13.450;2024-02-15T06:30:44;49.00;45.28;54.96;;
37162;Laerm;68342;52.598;13.450;2024-02-15T06:33:28;48.81;44.96;56.77;;
37162;Laerm;68342;52.598;13.450;2024-02-15T06:36:12;48.88;44.25;55.95;;
37162;Laerm;68342;52.598;13.450;2024-02-15T06:39:01;48.73;45.45;56.85;;
37162;Laerm;68342;52.598;13.450;2024-02-15T06:41:49;49.59;44.14;62.32;;
37162;Laerm;68342;52.598;13.450;2024-02-15T06:44:36;51.08;44.98;67.64;;
37162;Laerm;68342;52.598;13.450;2024-02-15T06:47:06;50.93;43.65;65.23;;
37162;Laerm;68342;52.598;13.450;2024-02-15T06:49:39;49.19;43.70;64.25;;
37162;Laerm;68342;52.598;13.450;2024-02-15T06:52:32;49.03;44.45;58.25;;
37162;Laerm;68342;52.598;13.450;2024-02-15T06:55:33;48.38;44.62;57.72;;
37162;Laerm;68342;52.598;13.450;2024-02-15T06:58:24;48.77;44.10;56.84;;
37162;Laerm;68342;52.598;13.450;2024-02-15T07:01:10;48.02;44.18;62.85;;
37162;Laerm;68342;52.598;13.450;2024-02-15T07:04:05;47.70;43.68;59.31;;
37162;Laerm;68342;52.598;13.450;2024-02-15T07:06:41;49.00;44.60;55.28;;
37162;Laerm;68342;52.598;13.450;2024-02-15T07:09:37;48.44;44.70;70.56;;
37162;Laerm;68342;52.598;13.450;2024-02-15T07:12:33;49.75;45.77;58.05;;
37162;Laerm;68342;52.598;13.450;2024-02-15T07:15:17;48.38;44.56;56.92;;
37162;Laerm;68342;52.598;13.450;2024-02-15T07:17:58;48.91;44.77;57.46;;
37162;Laerm;68342;52.598;13.450;2024-02-15T07:21:03;48.57;44.78;54.19;;
37162;Laerm;68342;52.598;13.450;2024-02-15T07:24:17;47.87;43.93;55.03;;
37162;Laerm;68342;52.598;13.450;2024-02-15T07:27:05;48.49;44.32;55.50;;
37162;Laerm;68342;52.598;13.450;2024-02-15T07:30:00;48.69;44.73;58.32;;
37162;Laerm;68342;52.598;13.450;2024-02-15T07:32:45;48.61;44.80;56.51;;
37162;Laerm;68342;52.598;13.450;2024-02-15T07:41:55;47.85;44.37;56.71;;
37162;Laerm;68342;52.598;13.450;2024-02-15T07:44:20;49.35;44.77;61.11;;
37162;Laerm;68342;52.598;13.450;2024-02-15T07:46:47;49.13;44.60;55.94;;
37162;Laerm;68342;52.598;13.450;2024-02-15T07:49:12;47.87;43.76;55.07;;
37162;Laerm;68342;52.598;13.450;2024-02-15T07:51:38;47.58;43.91;55.52;;
37162;Laerm;68342;52.598;13.450;2024-02-15T07:54:03;48.38;44.42;57.41;;
37162;Laerm;68342;52.598;13.450;2024-02-15T07:56:29;47.40;43.55;55.48;;
37162;Laerm;68342;52.598;13.450;2024-02-15T07:58:54;48.55;44.98;55.92;;
37162;Laerm;68342;52.598;13.450;2024-02-15T08:01:20;47.01;43.24;53.83;;
37162;Laerm;68342;52.598;13.450;2024-02-15T08:03:48;48.66;42.28;56.94;;
37162;Laerm;68342;52.598;13.450;2024-02-15T08:06:14;48.98;43.92;58.71;;
37162;Laerm;68342;52.598;13.450;2024-02-15T08:08:42;48.52;42.88;64.45;;
37162;Laerm;68342;52.598;13.450;2024-02-15T08:11:10;48.68;42.15;60.69;;
37162;Laerm;68342;52.598;13.450;2024-02-15T08:16:08;45.97;42.59;54.63;;
37162;Laerm;68342;52.598;13.450;2024-02-15T08:18:33;46.73;41.65;60.97;;
37162;Laerm;68342;52.598;13.450;2024-02-15T08:21:00;45.36;41.73;55.18;;
37162;Laerm;68342;52.598;13.450;2024-02-15T08:23:26;46.69;41.54;54.74;;
37162;Laerm;68342;52.598;13.450;2024-02-15T08:25:52;46.78;41.74;61.40;;
37162;Laerm;68342;52.598;13.450;2024-02-15T08:28:18;46.50;42.77;53.62;;
37162;Laerm;68342;52.598;13.450;2024-02-15T08:30:45;45.91;42.75;56.92;;
37162;Laerm;68342;52.598;13.450;2024-02-15T08:33:12;46.04;41.47;61.38;;
37162;Laerm;68342;52.598;13.450;2024-02-15T08:35:37;45.79;41.73;59.48;;
37162;Laerm;68342;52.598;13.450;2024-02-15T08:38:02;47.04;42.84;59.76;;
37162;Laerm;68342;52.598;13.450;2024-02-15T08:40:30;48.41;42.59;60.36;;
37162;Laerm;68342;52.598;13.450;2024-02-15T08:42:55;46.14;42.17;57.79;;
37162;Laerm;68342;52.598;13.450;2024-02-15T08:45:21;46.03;41.23;60.73;;
37162;Laerm;68342;52.598;13.450;2024-02-15T08:47:46;47.51;43.23;61.89;;
37162;Laerm;68342;52.598;13.450;2024-02-15T08:50:11;50.65;44.73;66.58;;
37162;Laerm;68342;52.598;13.450;2024-02-15T08:52:37;47.71;39.98;62.23;;
37162;Laerm;68342;52.598;13.450;2024-02-15T08:55:05;45.80;41.80;59.60;;
37162;Laerm;68342;52.598;13.450;2024-02-15T08:57:32;46.84;41.21;63.70;;
37162;Laerm;68342;52.598;13.450;2024-02-15T08:59:57;46.77;42.44;62.50;;
37162;Laerm;68342;52.598;13.450;2024-02-15T09:02:23;46.50;41.52;57.27;;
37162;Laerm;68342;52.598;13.450;2024-02-15T09:04:48;47.79;41.75;60.10;;
37162;Laerm;68342;52.598;13.450;2024-02-15T09:07:14;46.07;40.33;60.06;;
37162;Laerm;68342;52.598;13.450;2024-02-15T09:09:39;47.56;42.07;61.12;;
37162;Laerm;68342;52.598;13.450;2024-02-15T09:12:04;46.16;40.74;60.15;;
37162;Laerm;68342;52.598;13.450;2024-02-15T09:14:33;47.39;41.20;57.77;;
37162;Laerm;68342;52.598;13.450;2024-02-15T09:16:59;49.61;39.86;64.03;;
37162;Laerm;68342;52.598;13.450;2024-02-15T09:19:24;49.97;40.94;67.96;;
37162;Laerm;68342;52.598;13.450;2024-02-15T09:21:50;46.66;41.02;62.63;;
37162;Laerm;68342;52.598;13.450;2024-02-15T09:24:15;45.40;41.05;57.54;;
37162;Laerm;68342;52.598;13.450;2024-02-15T09:26:41;45.58;39.91;59.38;;
37162;Laerm;68342;52.598;13.450;2024-02-15T09:29:06;46.28;41.71;63.05;;
37162;Laerm;68342;52.598;13.450;2024-02-15T09:31:31;46.78;40.37;57.68;;
37162;Laerm;68342;52.598;13.450;2024-02-15T09:33:59;47.03;41.11;62.17;;
37162;Laerm;68342;52.598;13.450;2024-02-15T09:36:24;48.34;41.55;60.78;;
37162;Laerm;68342;52.598;13.450;2024-02-15T09:38:50;49.04;43.00;61.55;;
37162;Laerm;68342;52.598;13.450;2024-02-15T09:41:15;46.94;41.14;56.28;;
37162;Laerm;68342;52.598;13.450;2024-02-15T09:43:40;46.20;41.80;57.83;;
37162;Laerm;68342;52.598;13.450;2024-02-15T09:46:05;47.03;41.18;62.85;;
37162;Laerm;68342;52.598;13.450;2024-02-15T09:48:31;46.08;40.84;59.73;;
37162;Laerm;68342;52.598;13.450;2024-02-15T09:50:57;59.98;42.26;76.29;;
37162;Laerm;68342;52.598;13.450;2024-02-15T09:53:22;46.25;41.04;56.96;;
37162;Laerm;68342;52.598;13.450;2024-02-15T09:55:51;45.15;41.55;58.01;;
37162;Laerm;68342;52.598;13.450;2024-02-15T09:58:22;61.71;42.64;79.62;;
37162;Laerm;68342;52.598;13.450;2024-02-15T10:00:50;48.82;42.75;61.14;;
37162;Laerm;68342;52.598;13.450;2024-02-15T10:03:19;48.93;42.34;59.58;;
37162;Laerm;68342;52.598;13.450;2024-02-15T10:05:48;47.83;41.37;69.94;;
37162;Laerm;68342;52.598;13.450;2024-02-15T10:08:14;46.24;41.64;57.48;;
37162;Laerm;68342;52.598;13.450;2024-02-15T10:10:39;48.30;42.87;61.64;;
37162;Laerm;68342;52.598;13.450;2024-02-15T10:13:06;48.81;43.22;60.67;;
37162;Laerm;68342;52.598;13.450;2024-02-15T10:15:38;47.37;41.92;58.97;;
37162;Laerm;68342;52.598;13.450;2024-02-15T10:18:24;45.77;40.90;56.02;;
37162;Laerm;68342;52.598;13.450;2024-02-15T10:21:02;45.73;41.95;52.23;;
37162;Laerm;68342;52.598;13.450;2024-02-15T10:23:32;65.24;41.95;83.92;;
37162;Laerm;68342;52.598;13.450;2024-02-15T10:26:22;45.75;41.31;59.82;;
37162;Laerm;68342;52.598;13.450;2024-02-15T10:29:26;48.33;40.87;67.06;;
37162;Laerm;68342;52.598;13.450;2024-02-15T10:31:58;47.54;41.20;72.62;;
37162;Laerm;68342;52.598;13.450;2024-02-15T10:34:46;46.20;39.30;68.34;;
37162;Laerm;68342;52.598;13.450;2024-02-15T10:37:25;45.44;41.02;57.01;;
37162;Laerm;68342;52.598;13.450;2024-02-15T10:40:09;44.98;39.33;66.64;;
37162;Laerm;68342;52.598;13.450;2024-02-15T10:42:43;45.70;40.36;57.96;;
37162;Laerm;68342;52.598;13.450;2024-02-15T10:45:17;46.46;42.29;57.51;;
37162;Laerm;68342;52.598;13.450;2024-02-15T10:47:46;46.59;41.43;58.69;;
37162;Laerm;68342;52.598;13.450;2024-02-15T10:50:12;47.51;41.89;59.67;;
37162;Laerm;68342;52.598;13.450;2024-02-15T10:52:41;47.15;41.25;61.59;;
37162;Laerm;68342;52.598;13.450;2024-02-15T10:55:10;46.45;42.35;59.22;;
37162;Laerm;68342;52.598;13.450;2024-02-15T10:57:39;45.61;41.07;56.45;;
37162;Laerm;68342;52.598;13.450;2024-02-15T11:00:05;46.95;41.68;57.70;;
37162;Laerm;68342;52.598;13.450;2024-02-15T11:02:42;49.91;42.55;67.02;;
37162;Laerm;68342;52.598;13.450;2024-02-15T11:05:08;50.27;42.58;66.20;;
37162;Laerm;68342;52.598;13.450;2024-02-15T11:07:35;48.63;41.94;67.41;;
37162;Laerm;68342;52.598;13.450;2024-02-15T11:10:01;48.86;40.94;65.26;;
37162;Laerm;68342;52.598;13.450;2024-02-15T11:12:27;48.08;41.79;61.68;;
37162;Laerm;68342;52.598;13.450;2024-02-15T11:14:53;48.56;40.97;67.70;;
37162;Laerm;68342;52.598;13.450;2024-02-15T11:20:08;45.25;39.48;57.73;;
37162;Laerm;68342;52.598;13.450;2024-02-15T11:22:36;44.79;38.21;58.13;;
37162;Laerm;68342;52.598;13.450;2024-02-15T11:25:02;48.48;41.11;63.83;;
37162;Laerm;68342;52.598;13.450;2024-02-15T11:27:33;47.14;42.13;57.55;;
37162;Laerm;68342;52.598;13.450;2024-02-15T11:30:01;46.20;41.13;58.01;;
37162;Laerm;68342;52.598;13.450;2024-02-15T11:35:06;46.28;40.91;56.99;;
37162;Laerm;68342;52.598;13.450;2024-02-15T11:40:15;46.95;42.60;58.27;;
37162;Laerm;68342;52.598;13.450;2024-02-15T11:42:42;44.18;39.66;55.70;;
37162;Laerm;68342;52.598;13.450;2024-02-15T11:45:08;44.39;40.68;55.85;;
37162;Laerm;68342;52.598;13.450;2024-02-15T11:47:36;45.28;39.68;58.85;;
37162;Laerm;68342;52.598;13.450;2024-02-15T11:50:14;46.05;41.92;56.34;;
37162;Laerm;68342;52.598;13.450;2024-02-15T11:53:04;44.78;41.13;54.79;;
37162;Laerm;68342;52.598;13.450;2024-02-15T11:55:38;45.39;41.12;55.33;;
37162;Laerm;68342;52.598;13.450;2024-02-15T11:58:17;45.86;40.70;57.33;;
37162;Laerm;68342;52.598;13.450;2024-02-15T12:00:59;45.14;40.77;57.72;;
37162;Laerm;68342;52.598;13.450;2024-02-15T12:03:52;44.76;41.01;55.40;;
37162;Laerm;68342;52.598;13.450;2024-02-15T12:06:45;47.15;40.76;57.18;;
37162;Laerm;68342;52.598;13.450;2024-02-15T12:09:36;46.30;42.09;57.74;;
37162;Laerm;68342;52.598;13.450;2024-02-15T12:12:20;47.92;42.75;62.54;;
37162;Laerm;68342;52.598;13.450;2024-02-15T12:15:06;46.29;42.17;56.44;;
37162;Laerm;68342;52.598;13.450;2024-02-15T12:17:54;46.76;40.46;58.70;;
37162;Laerm;68342;52.598;13.450;2024-02-15T12:20:39;47.14;42.58;57.27;;
37162;Laerm;68342;52.598;13.450;2024-02-15T12:23:11;47.11;42.30;60.93;;
37162;Laerm;68342;52.598;13.450;2024-02-15T12:25:39;45.15;40.89;57.66;;
37162;Laerm;68342;52.598;13.450;2024-02-15T12:28:07;45.37;41.27;54.53;;
37162;Laerm;68342;52.598;13.450;2024-02-15T12:30:43;45.95;42.10;58.39;;
37162;Laerm;68342;52.598;13.450;2024-02-15T12:33:12;45.14;40.62;55.91;;
37162;Laerm;68342;52.598;13.450;2024-02-15T12:35:50;46.06;41.21;58.44;;
37162;Laerm;68342;52.598;13.450;2024-02-15T12:38:37;51.96;41.33;70.30;;
37162;Laerm;68342;52.598;13.450;2024-02-15T12:44:28;44.65;39.94;54.97;;
37162;Laerm;68342;52.598;13.450;2024-02-15T12:46:59;44.97;39.66;58.01;;
37162;Laerm;68342;52.598;13.450;2024-02-15T12:49:34;45.77;41.53;57.29;;
37162;Laerm;68342;52.598;13.450;2024-02-15T12:54:45;49.68;38.98;69.96;;
37162;Laerm;68342;52.598;13.450;2024-02-15T12:57:13;43.58;38.87;56.72;;
37162;Laerm;68342;52.598;13.450;2024-02-15T12:59:49;43.70;38.92;64.07;;
37162;Laerm;68342;52.598;13.450;2024-02-15T13:02:17;44.00;39.42;58.27;;
37162;Laerm;68342;52.598;13.450;2024-02-15T13:04:47;46.32;39.76;61.49;;
37162;Laerm;68342;52.598;13.450;2024-02-15T13:07:19;49.69;39.20;68.48;;
37162;Laerm;68342;52.598;13.450;2024-02-15T13:09:46;52.31;39.81;71.43;;
37162;Laerm;68342;52.598;13.450;2024-02-15T13:12:19;44.14;39.66;59.04;;
37162;Laerm;68342;52.598;13.450;2024-02-15T13:14:53;44.39;38.94;53.89;;
37162;Laerm;68342;52.598;13.450;2024-02-15T13:17:20;44.42;39.13;56.07;;
37162;Laerm;68342;52.598;13.450;2024-02-15T13:19:47;43.64;39.50;60.07;;
37162;Laerm;68342;52.598;13.450;2024-02-15T13:22:16;43.75;39.09;54.69;;
37162;Laerm;68342;52.598;13.450;2024-02-15T13:24:44;44.34;40.36;53.79;;
37162;Laerm;68342;52.598;13.450;2024-02-15T13:27:16;43.29;39.86;52.51;;
37162;Laerm;68342;52.598;13.450;2024-02-15T13:29:43;44.45;40.73;55.16;;
37162;Laerm;68342;52.598;13.450;2024-02-15T13:32:11;44.54;39.94;53.81;;
37162;Laerm;68342;52.598;13.450;2024-02-15T13:34:42;43.56;38.90;55.15;;
37162;Laerm;68342;52.598;13.450;2024-02-15T13:37:12;47.53;39.68;64.42;;
37162;Laerm;68342;52.598;13.450;2024-02-15T13:40:00;49.63;39.60;68.31;;
37162;Laerm;68342;52.598;13.450;2024-02-15T13:42:28;45.63;39.60;58.51;;
37162;Laerm;68342;52.598;13.450;2024-02-15T13:45:16;46.27;39.83;59.01;;
37162;Laerm;68342;52.598;13.450;2024-02-15T13:48:03;46.16;39.76;64.88;;
37162;Laerm;68342;52.598;13.450;2024-02-15T13:50:30;44.15;40.04;56.45;;
37162;Laerm;68342;52.598;13.450;2024-02-15T13:53:18;44.19;39.25;56.39;;
37162;Laerm;68342;52.598;13.450;2024-02-15T13:55:51;45.83;40.17;58.70;;
37162;Laerm;68342;52.598;13.450;2024-02-15T13:58:24;45.29;39.80;57.07;;
37162;Laerm;68342;52.598;13.450;2024-02-15T14:00:52;45.72;39.13;62.03;;
37162;Laerm;68342;52.598;13.450;2024-02-15T14:03:25;44.99;39.23;57.21;;
37162;Laerm;68342;52.598;13.450;2024-02-15T14:06:05;45.69;38.46;58.33;;
37162;Laerm;68342;52.598;13.450;2024-02-15T14:08:33;43.95;38.45;58.24;;
37162;Laerm;68342;52.598;13.450;2024-02-15T14:11:00;44.76;38.46;61.05;;